Ekofisk, Norvegia

05:10 AM CEST die 22o October, anno 2014 (GMT +0200)
Ekofisk | Change Station
CLOSE
Current Station
Airport
Location: Ekofisk,
Elevation: 10 ft
Nearby Weather Stations

Elev 10 ft 56.55 °N, 3.25 °E | Updated 20 minutes ago

Mostly Cloudy
Plerumque Nubila
52 °F
Feels Like 52 °F
N
50
Ventus Variabilis Ventus from Inter Aquilonem et Zephyrus
Gusts 61 mph

Hodie
High -- | Low -- °F
--% Chance of Precip.
Yesterday
High -- | Low -- °F
Precip. -- in
8:33 AM 6:28 PM
Waning Crescent, 3% visible
Pressio 29.77 in
Visibilitas 6.2 milia passuum
Clouds Few 3000 ft
Plerumque Nubila 4000 ft
Frigus in quo Ros apparet 37 °F
Umor 58%
Rainfall 0.00 in
Snow Depth Not available.
UV 0 out of 12
Pollen Not available.
Air Quality Not available.
Flu Activity Not available.
METAR ENEK 220250Z 31043G53KT 9999 FEW030 BKN040 11/03 Q1008 W12/S7

More Conditions Fewer Conditions

Pressio 29.77 in
Visibilitas 6.2 milia passuum
Clouds Few 3000 ft
Plerumque Nubila 4000 ft
Frigus in quo Ros apparet 37 °F
Umor 58%
Rainfall 0.00 in
Snow Depth Not available.
UV 0 out of 12
Pollen Not available.
Air Quality Not available.
Flu Activity Not available.
METAR ENEK 220250Z 31043G53KT 9999 FEW030 BKN040 11/03 Q1008 W12/S7

More Conditions Fewer Conditions

10-Day Weather Forecast

Almanac

Astronomy

Oct. 22, 2014 Rise Set
Actual Time 8:33 AM CEST 6:28 PM CEST
Civil Twilight 7:54 AM CEST 7:07 PM CEST
Nautical Twilight 7:11 AM CEST 7:50 PM CEST
Astronomical Twilight 6:27 AM CEST 8:34 PM CEST
Moon 6:43 AM CEST 5:58 PM CEST
Length Of Visible Light 11h 12m
Length of Day
9h 54m
Tomorrow will be 4m 35s shorter.
Waning Crescent, 3% of the Moon is Illuminated
Oct 21
Waning Crescent
Oct 23
New
Oct 30
First Quarter
Nov 6
Full
Nov 14
Last Quarter

Yesterday's Extremes

Country Highs Country Lows

Community

WunderPhotos

Upload Photos

1,763,869 photos uploaded!

Nearby

Snow Depth

Not available.

Earthquake Activity

City Distance Mag. Time & Date
No recent earthquake activity has been reported nearby.
Minimum magnitude displayed is 2.5.

Coastal Water Temperatures

Locus Calor
No Stations Reporting

Nearby Weather Stations